METAR Data
IDs: Format: Raw Decoded Include TAF

Data at: 1612 UTC 21 Sep 2018

KPQN 211555Z AUTO 33015G25KT 10SM OVC017 08/06 A3023 RMK AO2
KPQN 211535Z AUTO 32014G20KT 10SM BKN015 OVC021 08/06 A3022 RMK AO2
KPQN 211515Z AUTO 33010G20KT 10SM BKN013 OVC019 08/06 A3020 RMK AO2
KPQN 211455Z AUTO 33019G26KT 10SM OVC013 08/06 A3020 RMK AO2
KPQN 211435Z AUTO 32015G20KT 10SM BKN013 OVC018 08/06 A3018 RMK AO2
KPQN 211415Z AUTO 33014G25KT 10SM SCT012 OVC019 08/06 A3016 RMK AO2
KPQN 211355Z AUTO 33013G21KT 10SM BKN013 OVC018 08/06 A3014 RMK AO2
KPQN 211335Z AUTO 32012G25KT 10SM BKN013 OVC017 08/06 A3013 RMK AO2
KPQN 211315Z AUTO 32014G19KT 10SM BKN011 OVC017 08/07 A3012 RMK AO2
KPQN 211255Z AUTO 34019G24KT 5SM -DZ BKN009 OVC015 08/07 A3009 RMK AO2
KPQN 211235Z AUTO 32013G21KT 2SM DZ BKN009 OVC015 08/07 A3008 RMK AO2
KPQN 211215Z AUTO 31019G25KT 4SM -DZ BKN017 OVC022 08/07 A3006 RMK AO2
KPQN 211155Z AUTO 32016G23KT 10SM BKN015 OVC022 09/07 A3004 RMK AO2
KPQN 211135Z AUTO 31018G23KT 7SM BKN017 OVC024 09/07 A3003 RMK AO2
KPQN 211115Z AUTO 32015G24KT 10SM BKN024 OVC030 10/07 A3000 RMK AO2
KPQN 211055Z AUTO 31018G27KT 10SM BKN026 OVC033 11/08 A2998 RMK AO2
KPQN 211035Z AUTO 30016G22KT 10SM SCT013 BKN028 OVC035 11/09 A2996 RMK AO2
KPQN 211015Z AUTO 30011KT 10SM SCT016 BKN022 OVC035 11/10 A2994 RMK AO2
KPQN 210955Z AUTO 30009G15KT 10SM SCT014 SCT021 OVC035 11/10 A2992 RMK AO2
KPQN 210935Z AUTO 31012G19KT 5SM -RA SCT011 BKN018 OVC030 11/10 A2992 RMK AO2
KPQN 210915Z AUTO 31011G18KT 10SM SCT015 OVC024 12/09 A2991 RMK AO2
KPQN 210855Z AUTO 31012G20KT 10SM OVC015 12/09 A2990 RMK AO2
KPQN 210835Z AUTO 31016G23KT 10SM OVC015 12/09 A2988 RMK AO2
KPQN 210815Z AUTO 30014G19KT 10SM OVC013 12/10 A2988 RMK AO2
KPQN 210755Z AUTO 30014G21KT 10SM OVC013 12/09 A2987 RMK AO2
KPQN 210735Z AUTO 30014G21KT 10SM OVC011 11/10 A2987 RMK AO2
KPQN 210715Z AUTO 29015G20KT 10SM OVC011 12/10 A2986 RMK AO2
KPQN 210655Z AUTO 30015G22KT 10SM OVC011 12/10 A2985 RMK AO2
KPQN 210635Z AUTO 30017G23KT 10SM OVC011 12/11 A2984 RMK AO2
KPQN 210615Z AUTO 30015G18KT 10SM OVC011 12/11 A2983 RMK AO2
KPQN 210555Z AUTO 30011G19KT 10SM OVC013 12/11 A2983 RMK AO2
KPQN 210535Z AUTO 30014G23KT 10SM OVC011 12/11 A2983 RMK AO2
KPQN 210515Z AUTO 29014G19KT 10SM OVC013 13/11 A2982 RMK AO2
KPQN 210455Z AUTO 30013G20KT 10SM OVC011 13/12 A2980 RMK AO2
KPQN 210435Z AUTO 30009G13KT 10SM OVC009 13/12 A2979 RMK AO2
KPQN 210415Z AUTO 31014G21KT 10SM OVC011 13/12 A2979 RMK AO2
KPQN 210355Z AUTO 29017G23KT 10SM OVC009 13/12 A2978 RMK AO2
KPQN 210335Z AUTO 30017G24KT 10SM OVC007 13/13 A2977 RMK AO2
KPQN 210315Z AUTO 30015G20KT 5SM BR OVC007 14/13 A2976 RMK AO2
KPQN 210255Z AUTO 29016G26KT 5SM BR BKN007 OVC012 14/14 A2975 RMK AO2
KPQN 210235Z AUTO 29018G27KT 2 1/2SM DZ BKN007 OVC016 16/14 A2973 RMK AO2
KPQN 210215Z AUTO 28011G16KT 10SM OVC018 17/16 A2971 RMK AO2
KPQN 210155Z AUTO 29010G17KT 10SM SCT008 OVC019 17/16 A2969 RMK AO2
KPQN 210135Z AUTO 29010G14KT 10SM OVC008 17/16 A2968 RMK AO2
KPQN 210115Z AUTO 28010KT 10SM BKN010 17/16 A2966 RMK AO2
KPQN 210055Z AUTO 28009KT 10SM CLR 17/16 A2965 RMK AO2
KPQN 210035Z AUTO 29010KT 10SM SCT015 18/17 A2964 RMK AO2
KPQN 210015Z AUTO 29011G16KT 10SM BKN015 18/17 A2963 RMK AO2
KPQN 202355Z AUTO 29011G17KT 10SM OVC015 19/18 A2962 RMK AO2
KPQN 202335Z AUTO 28009G15KT 10SM BKN009 OVC017 19/18 A2961 RMK AO2
KPQN 202315Z AUTO 29010G14KT 10SM BKN009 OVC017 19/18 A2960 RMK AO2
KPQN 202255Z AUTO 28013G21KT 10SM OVC009 19/18 A2959 RMK AO2 LTG DSNT E P0001
KPQN 202235Z AUTO 28004KT 10SM OVC009 19/18 A2960 RMK AO2 P0001
KPQN 202215Z AUTO 00000KT 10SM -RA BKN009 OVC014 18/18 A2961 RMK AO2 P0001 P0001
KPQN 202155Z AUTO 00000KT 10SM RA SCT014 SCT026 BKN070 18/18 A2962 RMK AO2 LTG DSNT E P0004
KPQN 202135Z AUTO 00000KT 7SM RA SCT003 SCT018 BKN031 18/17 A2957 RMK AO2 P0004 LTG DSNT NE THRU S P0004
KPQN 202115Z AUTO 00000KT 4SM TSRA BKN003 BKN017 OVC027 18/17 A2961 RMK AO2 P0055 LTG DSNT ALQDS P0055
KPQN 202055Z AUTO 32011G18KT 4SM VCTSBR BKN005 BKN011 OVC015 18/18 A2964 RMK AO2 P0012 LTG DSNT ALQDS P0012
KPQN 202035Z AUTO 13008KT 7SM VCTS BKN005 19/18 A2958 RMK AO2 LTG DSNT SW THRU NE
KPQN 202015Z AUTO 14010KT 7SM BKN005 18/18 A2959 RMK AO2 LTG DSNT W THRU N
KPQN 201955Z AUTO 14009KT 10SM OVC005 18/17 A2961 RMK AO2 LTG DSNT W THRU N
KPQN 201935Z AUTO 14010G14KT 10SM OVC005 18/17 A2963 RMK AO2 LTG DSNT N AND W
KPQN 201915Z AUTO 14008G14KT 3SM DZ BKN005 18/17 A2965 RMK AO2 LTG DSNT W THRU N
KPQN 201855Z AUTO 12008KT 2 1/2SM DZ BKN007 17/17 A2966 RMK AO2 LTG DSNT NE AND NW
KPQN 201835Z AUTO 12009KT 2SM -RA OVC007 17/17 A2968 RMK AO2 LTG DSNT NE AND E
KPQN 201815Z AUTO 11010G17KT 2SM -RA BKN009 OVC019 17/17 A2970 RMK AO2
KPQN 201755Z AUTO 12011G17KT 2 1/2SM -RA SCT009 BKN029 OVC040 17/17 A2972 RMK AO2 P0001 P0001
KPQN 201735Z AUTO 12015G20KT 4SM VCTSRA SCT007 BKN025 OVC041 17/16 A2974 RMK AO2 P0004 LTG DSNT ALQDS P0004
KPQN 201715Z AUTO 11010G16KT 10SM VCTSRA SCT020 BKN029 OVC070 17/16 A2974 RMK AO2 P0004 LTG DSNT ALQDS P0004
KPQN 201655Z AUTO 13011G18KT 7SM +TSRA SCT013 BKN022 OVC037 17/16 A2975 RMK AO2 P0018 LTG DSNT ALQDS P0018
KPQN 201635Z AUTO 12011G18KT 4SM +TSRA SCT012 BKN022 OVC043 17/16 A2977 RMK AO2 P0029 LTG DSNT ALQDS P0029
KPQN 201615Z AUTO 12013G20KT 10SM -TSRA SCT023 BKN033 OVC060 17/16 A2978 RMK AO2 P0002 LTG DSNT SE AND W P0002
KPQN 201555Z AUTO 13015G20KT 10SM -TSRA SCT030 BKN037 BKN050 17/16 A2978 RMK AO2 P0001 LTG DSNT E THRU SW P0001
KPQN 201535Z AUTO 13012G21KT 10SM -VCTSRA SCT023 BKN034 BKN049 17/16 A2979 RMK AO2 P0003 LTG DSNT ALQDS P0003
KPQN 201515Z AUTO 12013G19KT 10SM VCTSRA SCT025 SCT040 SCT055 17/16 A2980 RMK AO2 P0002 LTG DSNT S AND SW P0002
KPQN 201455Z AUTO 13015G22KT 10SM TS SCT110 17/16 A2978 RMK AO2 LTG DSNT SW P0002
KPQN 201435Z AUTO 13014G22KT 10SM -VCTSRA SCT028 SCT037 SCT110 17/16 A2981 RMK AO2 LTG DSNT S P0002
KPQN 201415Z AUTO 13014G20KT 7SM +RA SCT014 SCT033 BKN055 17/16 A2982 RMK AO2 P0002 LTG DSNT SW P0002
KPQN 201355Z AUTO 14014G20KT 10SM VCTSRA CLR 17/16 A2985 RMK AO2 P0001 LTG DSNT S P0001
KPQN 201335Z AUTO 14011G17KT 10SM -RA SCT006 SCT016 BKN027 16/16 A2986 RMK AO2 P0002 LTG DSNT SE P0002
KPQN 201315Z AUTO 13007G16KT 10SM RA SCT016 BKN021 OVC027 16/15 A2986 RMK AO2 P0007 LTG DSNT S P0007
KPQN 201255Z AUTO 00000KT 10SM RA SCT012 BKN021 OVC060 15/14 A2990 RMK AO2 P0009 LTG DSNT S P0009
KPQN 201235Z AUTO 00000KT 10SM RA SCT012 BKN021 OVC060 15/14 A2991 RMK AO2 P0007 P0007
KPQN 201215Z AUTO 13003KT 10SM VCTSRA SCT015 BKN033 OVC060 15/14 A2990 RMK AO2 P0009 LTG DSNT S AND SW P0009
KPQN 201155Z AUTO 00000KT 10SM RA SCT001 BKN007 OVC065 15/14 A2990 RMK AO2 P0011 LTG DSNT SW P0011
KPQN 201135Z AUTO 00000KT 10SM RA OVC007 14/14 A2991 RMK AO2 P0003 P0003
KPQN 201115Z AUTO 11008KT 10SM RA OVC007 14/14 A2987 RMK AO2 P0002 P0002
KPQN 201055Z AUTO 09008KT 10SM RA SCT005 BKN010 OVC019 14/14 A2985 RMK AO2 P0007 LTG DSNT SE P0007
KPQN 201035Z AUTO 10008KT 10SM RA SCT014 BKN021 OVC070 14/14 A2989 RMK AO2 P0009 P0009
KPQN 201015Z AUTO 12009G15KT 10SM +RA SCT008 BKN016 OVC026 14/13 A2989 RMK AO2 P0009 P0009
KPQN 200955Z AUTO 11010G15KT 10SM RA SCT013 BKN026 OVC070 14/13 A2989 RMK AO2 P0004 P0004
KPQN 200935Z AUTO 10009KT 10SM RA SCT009 BKN013 OVC029 14/13 A2990 RMK AO2 P0005 P0005
KPQN 200915Z AUTO 11006KT 10SM +RA BKN009 BKN015 OVC020 14/13 A2991 RMK AO2 P0010 P0010
KPQN 200855Z AUTO 00000KT 10SM +RA BKN007 OVC012 14/13 A2992 RMK AO2 P0005 P0005
KPQN 200835Z AUTO 00000KT 10SM -RA BKN005 BKN012 OVC070 14/13 A2992 RMK AO2 P0003 P0003
KPQN 200815Z AUTO 10007KT 10SM RA SCT014 OVC023 13/13 A2991 RMK AO2 P0008 P0008
KPQN 200755Z AUTO 09006KT 10SM +RA SCT006 BKN012 OVC023 14/13 A2994 RMK AO2 P0014 P0014
KPQN 200735Z AUTO 00000KT 7SM +RA SCT006 OVC012 14/13 A2996 RMK AO2 P0013 P0013
KPQN 200715Z AUTO 06006KT 10SM +RA BKN006 OVC010 14/13 A2996 RMK AO2 P0011 P0011
KPQN 200655Z AUTO 04008KT 10SM RA SCT006 BKN018 OVC028 14/13 A2996 RMK AO2 P0009 P0009
KPQN 200635Z AUTO 10007KT 7SM +RA SCT008 BKN035 OVC070 14/13 A2995 RMK AO2 P0009 P0009
KPQN 200615Z AUTO 06010G15KT 10SM +RA SCT006 BKN013 OVC034 14/13 A2995 RMK AO2 P0010 P0010
KPQN 200555Z AUTO 07007KT 10SM RA BKN006 BKN017 OVC029 14/14 A2996 RMK AO2 P0008 P0008
KPQN 200535Z AUTO 06007KT 10SM RA SCT006 BKN017 OVC024 14/14 A2995 RMK AO2 P0014 LTG DSNT S P0014
KPQN 200515Z AUTO 07009KT 5SM +TSRA BKN006 BKN012 OVC080 14/14 A2995 RMK AO2 P0020 LTG DSNT S AND SW P0020
KPQN 200455Z AUTO 05010KT 10SM -RA BKN006 BKN080 OVC090 14/14 A2994 RMK AO2 P0001 LTG DSNT S AND NW P0001
KPQN 200435Z AUTO 06010G17KT 10SM -RA BKN005 BKN090 OVC110 14/14 A2994 RMK AO2 LTG DSNT SW AND W P0003
KPQN 200415Z AUTO 06011G16KT 10SM -RA BKN005 BKN011 OVC024 14/14 A2995 RMK AO2 P0003 LTG DSNT SE AND S P0003